Time;durP1;ratioP1;P1;durP2;ratioP2;P2;SDS_P1;SDS_P2;PMS_P1;PMS_P2;Temp;Humidity;BMP_temperature;BMP_pressure;BME280_temperature;BME280_humidity;BME280_pressure;Samples;Min_cycle;Max_cycle;Signal;HPM_P1;HPM_P2
2022/04/15 00:00:45;;;;;;;4.47;4.07;;;15.00;86.90;;;;;;5053040;28;20187;-42
2022/04/15 00:03:11;;;;;;;6.03;3.87;;;15.00;87.30;;;;;;5046686;28;20444;-41
2022/04/15 00:05:37;;;;;;;6.80;6.20;;;14.90;87.60;;;;;;5052628;28;20278;-40
2022/04/15 00:08:11;;;;;;;6.73;5.70;;;14.90;87.70;;;;;;5053633;28;20905;-38
2022/04/15 00:10:39;;;;;;;8.90;7.20;;;14.90;87.80;;;;;;5053456;28;20528;-40
2022/04/15 00:13:06;;;;;;;9.53;6.67;;;14.80;87.80;;;;;;5053245;28;20450;-39
2022/04/15 00:15:33;;;;;;;8.87;6.70;;;14.70;88.10;;;;;;5052003;28;20920;-39
2022/04/15 00:17:59;;;;;;;7.07;6.37;;;14.70;88.30;;;;;;5053816;28;20523;-41
2022/04/15 00:20:26;;;;;;;8.07;7.07;;;14.70;88.60;;;;;;5052201;28;20592;-40
2022/04/15 00:22:53;;;;;;;8.70;6.30;;;14.60;88.80;;;;;;5053932;28;20197;-43
2022/04/15 00:25:18;;;;;;;7.00;6.30;;;14.60;89.10;;;;;;5052346;28;20811;-41
2022/04/15 00:27:44;;;;;;;7.83;5.80;;;14.50;89.30;;;;;;5052239;28;20481;-41
2022/04/15 00:30:11;;;;;;;10.30;6.00;;;14.50;89.60;;;;;;5048620;28;20837;-40
2022/04/15 00:32:37;;;;;;;6.47;5.87;;;14.50;89.90;;;;;;5045621;28;20192;-39
2022/04/15 00:35:04;;;;;;;5.77;5.27;;;14.50;90.00;;;;;;5051196;28;20506;-39
2022/04/15 00:37:31;;;;;;;7.53;5.70;;;14.40;90.20;;;;;;5053020;28;20457;-40
2022/04/15 00:39:57;;;;;;;7.00;5.70;;;14.40;90.30;;;;;;5052713;28;20543;-39
2022/04/15 00:42:23;;;;;;;5.10;4.60;;;14.40;90.50;;;;;;5053364;28;20462;-39
2022/04/15 00:45:00;;;;;;;6.90;5.20;;;14.40;90.60;;;;;;5051464;28;20477;-42
2022/04/15 00:47:45;;;;;;;4.70;4.30;;;14.40;90.70;;;;;;5051725;28;20439;-40
2022/04/15 00:50:12;;;;;;;5.60;4.97;;;14.30;90.70;;;;;;5049070;28;20968;-40
2022/04/15 00:52:40;;;;;;;9.00;4.93;;;14.30;90.90;;;;;;5041835;28;20539;-39
2022/04/15 00:55:06;;;;;;;5.20;4.70;;;14.30;91.00;;;;;;5050568;28;20794;-40
2022/04/15 00:57:36;;;;;;;6.40;5.07;;;14.20;91.10;;;;;;5052334;28;20721;-39
2022/04/15 01:00:05;;;;;;;7.47;6.07;;;14.20;91.20;;;;;;5050104;28;20429;-40
2022/04/15 01:02:33;;;;;;;5.17;4.67;;;14.20;91.30;;;;;;5051520;28;20862;-40
2022/04/15 01:04:59;;;;;;;5.90;4.73;;;14.10;91.30;;;;;;5042259;28;20428;-39
2022/04/15 01:07:26;;;;;;;5.73;5.23;;;14.10;91.50;;;;;;5050124;28;20838;-39
2022/04/15 01:09:53;;;;;;;7.57;4.73;;;14.00;91.40;;;;;;5050771;28;20823;-41
2022/04/15 01:12:21;;;;;;;6.60;5.20;;;14.00;91.50;;;;;;5053062;28;20443;-39
2022/04/15 01:14:48;;;;;;;5.50;4.90;;;14.00;91.50;;;;;;5049483;28;20780;-41
2022/04/15 01:17:14;;;;;;;5.03;4.57;;;14.00;91.60;;;;;;5049003;28;20685;-40
2022/04/15 01:19:40;;;;;;;5.60;4.60;;;14.00;91.60;;;;;;5053687;28;20441;-39
2022/04/15 01:22:09;;;;;;;5.07;4.57;;;13.90;91.60;;;;;;5049145;28;20599;-39
2022/04/15 01:24:44;;;;;;;5.03;4.57;;;13.90;91.70;;;;;;5049482;28;20545;-39
2022/04/15 01:27:10;;;;;;;7.00;5.20;;;13.90;91.80;;;;;;5044777;28;20471;-40
2022/04/15 01:29:37;;;;;;;5.63;5.07;;;13.90;91.80;;;;;;5050346;28;20433;-39
2022/04/15 01:32:07;;;;;;;5.47;4.97;;;13.80;91.80;;;;;;5049326;28;20766;-39
2022/04/15 01:34:33;;;;;;;6.27;5.30;;;13.80;91.90;;;;;;5049903;28;20430;-42
2022/04/15 01:37:00;;;;;;;9.13;6.03;;;13.80;92.00;;;;;;5051568;28;20439;-39
2022/04/15 01:39:27;;;;;;;5.67;5.17;;;13.80;92.10;;;;;;5048967;28;20469;-40
2022/04/15 01:41:53;;;;;;;8.97;5.20;;;13.80;92.20;;;;;;5050075;28;20449;-42
2022/04/15 01:44:18;;;;;;;6.87;4.90;;;13.80;92.20;;;;;;5042776;28;20433;-42
2022/04/15 01:46:44;;;;;;;6.67;5.00;;;13.80;92.40;;;;;;5048646;28;20468;-40
2022/04/15 01:49:10;;;;;;;5.20;4.57;;;13.80;92.50;;;;;;5045217;28;20243;-39
2022/04/15 01:51:36;;;;;;;6.40;5.10;;;13.70;92.50;;;;;;5042428;28;20443;-40
2022/04/15 01:54:02;;;;;;;9.27;5.23;;;13.70;92.50;;;;;;5053350;28;20189;-40
2022/04/15 01:56:28;;;;;;;7.60;5.90;;;13.70;92.60;;;;;;5048367;28;20292;-41
2022/04/15 01:58:54;;;;;;;6.37;5.60;;;13.70;92.60;;;;;;5042608;28;20551;-41
2022/04/15 02:01:19;;;;;;;7.30;4.93;;;13.70;92.60;;;;;;5042901;28;20193;-41
2022/04/15 02:03:45;;;;;;;7.90;5.90;;;13.70;92.60;;;;;;5043384;28;20517;-40
2022/04/15 02:06:10;;;;;;;5.20;4.70;;;13.70;92.60;;;;;;5050711;28;20538;-40
2022/04/15 02:08:36;;;;;;;5.30;4.67;;;13.80;92.60;;;;;;5052567;28;20196;-40
2022/04/15 02:11:02;;;;;;;5.23;4.73;;;13.70;92.60;;;;;;5053308;28;20229;-42
2022/04/15 02:13:27;;;;;;;6.53;5.93;;;13.80;92.70;;;;;;5051443;28;20190;-43
2022/04/15 02:15:53;;;;;;;6.47;5.67;;;13.70;92.60;;;;;;5052191;28;20204;-40
2022/04/15 02:18:19;;;;;;;6.60;5.20;;;13.70;92.70;;;;;;5052155;28;20251;-43
2022/04/15 02:20:44;;;;;;;6.20;5.50;;;13.70;92.70;;;;;;5053046;28;20242;-41
2022/04/15 02:23:10;;;;;;;6.63;5.33;;;13.70;92.70;;;;;;5050409;28;20189;-40
2022/04/15 02:25:35;;;;;;;6.80;6.10;;;13.70;92.80;;;;;;5053964;28;20283;-41
2022/04/15 02:28:01;;;;;;;6.57;5.60;;;13.70;92.80;;;;;;5055226;28;20232;-40
2022/04/15 02:30:27;;;;;;;6.37;5.20;;;13.70;92.80;;;;;;5053641;28;20251;-42
2022/04/15 02:32:52;;;;;;;5.50;5.00;;;13.70;92.90;;;;;;5055564;28;20190;-40
2022/04/15 02:35:18;;;;;;;6.20;5.00;;;13.60;92.80;;;;;;5056427;28;20220;-39
2022/04/15 02:37:43;;;;;;;5.70;4.93;;;13.60;92.90;;;;;;5055924;28;20236;-39
2022/04/15 02:40:10;;;;;;;5.80;4.97;;;13.60;93.00;;;;;;5056246;28;20202;-41
2022/04/15 02:42:36;;;;;;;6.23;5.40;;;13.60;93.00;;;;;;5054518;28;20186;-40
2022/04/15 02:45:03;;;;;;;6.03;4.83;;;13.60;93.10;;;;;;5058135;28;20438;-40
2022/04/15 02:47:29;;;;;;;6.67;5.40;;;13.60;93.10;;;;;;5055656;28;21103;-40
2022/04/15 02:49:55;;;;;;;6.53;5.20;;;13.60;93.20;;;;;;5054353;28;20440;-40
2022/04/15 02:52:21;;;;;;;5.93;5.00;;;13.60;93.40;;;;;;5054844;28;20776;-43
2022/04/15 02:54:47;;;;;;;5.20;4.80;;;13.60;93.20;;;;;;5056521;28;20220;-40
2022/04/15 02:57:12;;;;;;;6.03;5.43;;;13.60;93.20;;;;;;5054279;28;20438;-44
2022/04/15 02:59:38;;;;;;;8.10;5.60;;;13.60;93.20;;;;;;5056440;28;20505;-41
2022/04/15 03:02:04;;;;;;;9.37;5.70;;;13.50;93.10;;;;;;5056303;28;20200;-41
2022/04/15 03:04:29;;;;;;;7.00;5.90;;;13.50;93.10;;;;;;5056636;28;20193;-39
2022/04/15 03:06:55;;;;;;;6.17;5.67;;;13.50;93.20;;;;;;5054101;28;20591;-40
2022/04/15 03:09:25;;;;;;;6.23;5.20;;;13.50;93.20;;;;;;5053955;28;20186;-40
2022/04/15 03:11:50;;;;;;;6.93;5.80;;;13.50;93.30;;;;;;5057282;28;20185;-41
2022/04/15 03:14:17;;;;;;;6.00;5.40;;;13.50;93.40;;;;;;5054968;28;20443;-41
2022/04/15 03:16:43;;;;;;;6.70;5.10;;;13.50;93.40;;;;;;5053878;28;20540;-42
2022/04/15 03:19:09;;;;;;;5.80;5.30;;;13.40;93.50;;;;;;5055658;28;20444;-41
2022/04/15 03:21:37;;;;;;;5.73;5.17;;;13.40;93.60;;;;;;5054431;28;20433;-41
2022/04/15 03:24:03;;;;;;;7.30;5.77;;;13.40;93.70;;;;;;5053236;28;20456;-39
2022/04/15 03:26:29;;;;;;;6.67;5.27;;;13.40;93.80;;;;;;5049744;28;20480;-41
2022/04/15 03:28:54;;;;;;;5.57;5.07;;;13.40;93.80;;;;;;5051427;28;20505;-42
2022/04/15 03:31:20;;;;;;;6.37;5.77;;;13.30;93.70;;;;;;5052854;28;20274;-43
2022/04/15 03:33:46;;;;;;;5.53;5.07;;;13.30;93.80;;;;;;5056674;28;20181;-41
2022/04/15 03:36:12;;;;;;;5.57;5.00;;;13.30;93.80;;;;;;5055925;28;20213;-41
2022/04/15 03:38:38;;;;;;;5.83;5.23;;;13.30;93.80;;;;;;5051656;28;20457;-42
2022/04/15 03:41:04;;;;;;;5.73;5.23;;;13.30;93.80;;;;;;5055602;28;20451;-41
2022/04/15 03:43:29;;;;;;;5.57;5.00;;;13.30;93.90;;;;;;5057230;28;20440;-41
2022/04/15 03:45:55;;;;;;;7.23;5.80;;;13.30;93.90;;;;;;5053111;28;20303;-42
2022/04/15 03:48:21;;;;;;;7.57;6.37;;;13.30;94.00;;;;;;5053357;28;20281;-40
2022/04/15 03:50:47;;;;;;;5.60;5.10;;;13.30;94.00;;;;;;5056401;28;20460;-40
2022/04/15 03:53:12;;;;;;;6.20;5.20;;;13.30;94.00;;;;;;5053717;28;20434;-40
2022/04/15 03:55:38;;;;;;;5.77;4.93;;;13.20;94.00;;;;;;5052560;28;20498;-42
2022/04/15 03:58:04;;;;;;;6.50;5.90;;;13.20;94.00;;;;;;5054948;28;20185;-40
2022/04/15 04:00:29;;;;;;;5.40;4.90;;;13.20;94.00;;;;;;5052887;28;20272;-41
2022/04/15 04:02:55;;;;;;;6.30;5.70;;;13.20;94.30;;;;;;5054369;28;20275;-41
2022/04/15 04:05:22;;;;;;;6.53;5.30;;;13.20;94.00;;;;;;5055111;28;22320;-40
2022/04/15 04:07:48;;;;;;;5.77;4.87;;;13.20;94.10;;;;;;5056368;28;20466;-42
2022/04/15 04:10:14;;;;;;;5.90;5.40;;;13.10;94.00;;;;;;5053828;28;20424;-41
2022/04/15 04:12:41;;;;;;;6.67;5.60;;;13.10;94.00;;;;;;5052233;28;20536;-41
2022/04/15 04:15:07;;;;;;;9.73;6.10;;;13.10;94.00;;;;;;5053342;28;20890;-41
2022/04/15 04:17:33;;;;;;;7.50;5.70;;;13.00;94.00;;;;;;5052747;28;20435;-41
2022/04/15 04:19:59;;;;;;;7.30;6.60;;;13.00;94.00;;;;;;5052896;28;20441;-40
2022/04/15 04:22:29;;;;;;;6.77;5.67;;;13.00;94.00;;;;;;5052550;28;20178;-42
2022/04/15 04:24:55;;;;;;;6.30;5.80;;;12.90;93.90;;;;;;5050442;28;20494;-40
2022/04/15 04:27:20;;;;;;;5.80;5.20;;;12.90;93.90;;;;;;5052242;28;20473;-40
2022/04/15 04:29:46;;;;;;;5.67;5.17;;;12.90;93.90;;;;;;5053027;28;20202;-40
2022/04/15 04:32:11;;;;;;;7.50;6.70;;;12.80;93.80;;;;;;5055082;28;20229;-39
2022/04/15 04:34:37;;;;;;;5.87;5.37;;;12.80;93.80;;;;;;5051590;28;20187;-40
2022/04/15 04:37:03;;;;;;;7.27;6.00;;;12.80;93.80;;;;;;5053559;28;20521;-40
2022/04/15 04:39:29;;;;;;;6.43;5.83;;;12.70;93.80;;;;;;5054923;28;20217;-40
2022/04/15 04:41:56;;;;;;;6.70;5.93;;;12.70;93.80;;;;;;5051763;28;20194;-42
2022/04/15 04:44:22;;;;;;;6.83;6.13;;;12.70;93.90;;;;;;5054387;28;20683;-39
2022/04/15 04:46:48;;;;;;;6.73;6.10;;;12.70;94.00;;;;;;5055612;28;20479;-40
2022/04/15 04:49:14;;;;;;;6.07;5.47;;;12.60;94.00;;;;;;5052399;28;20427;-39
2022/04/15 04:51:39;;;;;;;7.87;7.17;;;12.60;94.10;;;;;;5051880;28;20466;-39
2022/04/15 04:54:05;;;;;;;8.00;6.80;;;12.60;94.10;;;;;;5045222;28;20744;-41
2022/04/15 04:56:31;;;;;;;6.97;6.27;;;12.60;94.10;;;;;;5050844;28;20321;-41
2022/04/15 04:58:56;;;;;;;7.30;6.60;;;12.60;94.20;;;;;;5050335;28;20880;-39
2022/04/15 05:01:22;;;;;;;7.77;6.97;;;12.60;94.10;;;;;;5052043;28;20190;-41
2022/04/15 05:03:48;;;;;;;7.17;6.47;;;12.60;94.10;;;;;;5055082;28;20193;-40
2022/04/15 05:06:13;;;;;;;7.50;6.80;;;12.60;94.00;;;;;;5050421;28;20209;-39
2022/04/15 05:08:39;;;;;;;7.07;6.37;;;12.70;94.10;;;;;;5049704;28;20209;-40
2022/04/15 05:11:05;;;;;;;7.17;6.47;;;12.70;94.10;;;;;;5042810;28;20194;-42
2022/04/15 05:13:30;;;;;;;7.23;6.53;;;12.70;94.10;;;;;;5049898;28;20446;-41
2022/04/15 05:15:56;;;;;;;6.87;6.17;;;12.70;94.00;;;;;;5049878;28;20203;-40
2022/04/15 05:18:22;;;;;;;7.67;6.97;;;12.80;94.10;;;;;;5051637;28;21008;-39
2022/04/15 05:20:47;;;;;;;7.10;6.40;;;12.80;94.10;;;;;;5052059;28;20195;-40
2022/04/15 05:23:15;;;;;;;7.33;5.97;;;12.90;94.10;;;;;;5051449;28;20266;-39
2022/04/15 05:25:41;;;;;;;7.07;6.37;;;12.90;94.00;;;;;;5049779;28;20504;-40
2022/04/15 05:28:06;;;;;;;6.27;5.67;;;12.90;93.90;;;;;;5050167;28;20739;-40
2022/04/15 05:30:32;;;;;;;6.70;6.07;;;13.00;93.90;;;;;;5050261;28;20290;-40
2022/04/15 05:32:58;;;;;;;6.90;6.20;;;13.10;93.80;;;;;;5046797;28;20532;-39
2022/04/15 05:35:23;;;;;;;9.17;6.90;;;13.10;93.80;;;;;;5045947;28;20194;-40
2022/04/15 05:37:49;;;;;;;7.07;6.13;;;13.20;93.70;;;;;;5049957;28;20203;-39
2022/04/15 05:40:15;;;;;;;7.57;6.87;;;13.20;93.60;;;;;;5050943;28;20186;-40
2022/04/15 05:42:41;;;;;;;6.17;5.57;;;13.30;93.60;;;;;;5050465;28;20204;-39
2022/04/15 05:45:07;;;;;;;6.90;6.20;;;13.40;93.50;;;;;;5051070;28;20222;-39
2022/04/15 05:47:33;;;;;;;11.70;7.30;;;13.50;93.50;;;;;;5047173;28;20506;-40
2022/04/15 05:49:58;;;;;;;6.70;6.00;;;13.60;93.40;;;;;;5046107;28;20506;-41
2022/04/15 05:52:24;;;;;;;7.50;6.80;;;13.70;93.30;;;;;;5051916;28;20518;-40
2022/04/15 05:54:49;;;;;;;6.50;5.90;;;13.70;93.20;;;;;;5047370;28;20232;-40
2022/04/15 05:57:15;;;;;;;5.97;5.47;;;13.80;93.20;;;;;;5049446;28;20185;-41
2022/04/15 05:59:41;;;;;;;6.73;6.13;;;14.00;93.20;;;;;;5042626;28;20484;-40
2022/04/15 06:02:07;;;;;;;6.73;6.03;;;14.10;93.00;;;;;;5046498;28;20907;-39
2022/04/15 06:04:33;;;;;;;7.60;6.90;;;14.20;92.90;;;;;;5048094;28;20191;-40
2022/04/15 06:06:58;;;;;;;7.23;6.53;;;14.40;92.90;;;;;;5043693;28;20527;-41
2022/04/15 06:09:24;;;;;;;7.67;6.87;;;14.60;92.70;;;;;;5050693;28;20322;-40
2022/04/15 06:11:52;;;;;;;7.77;6.97;;;14.70;92.50;;;;;;5049417;28;20492;-40
2022/04/15 06:14:21;;;;;;;7.10;6.40;;;14.80;92.30;;;;;;5052415;28;20366;-40
2022/04/15 06:16:47;;;;;;;7.87;7.17;;;15.00;92.10;;;;;;5051153;28;20448;-40
2022/04/15 06:19:14;;;;;;;7.03;6.37;;;15.20;91.90;;;;;;5049481;28;20438;-44
2022/04/15 06:21:40;;;;;;;7.53;6.80;;;15.30;91.70;;;;;;5049186;28;20194;-40
2022/04/15 06:24:08;;;;;;;6.80;6.17;;;15.60;91.60;;;;;;5048821;28;20882;-39
2022/04/15 06:26:34;;;;;;;7.33;6.60;;;15.80;91.40;;;;;;5048715;28;20476;-40
2022/04/15 06:29:00;;;;;;;10.90;7.20;;;16.00;91.10;;;;;;5058196;28;20441;-41
2022/04/15 06:31:26;;;;;;;8.47;7.53;;;16.30;90.80;;;;;;5065554;28;20447;-41
2022/04/15 06:33:52;;;;;;;7.90;7.20;;;16.50;90.40;;;;;;5063461;28;20182;-40
2022/04/15 06:36:19;;;;;;;8.23;7.40;;;16.70;90.20;;;;;;5062128;28;20275;-41
2022/04/15 06:38:45;;;;;;;9.33;8.43;;;16.90;90.00;;;;;;5065334;28;20494;-40
2022/04/15 06:41:11;;;;;;;8.37;7.47;;;17.00;89.20;;;;;;5068709;28;20669;-42
2022/04/15 06:43:36;;;;;;;8.73;7.83;;;17.20;88.60;;;;;;5067793;28;20430;-40
2022/04/15 06:46:03;;;;;;;10.53;9.43;;;17.40;87.60;;;;;;5066974;28;20309;-40
2022/04/15 06:48:29;;;;;;;9.80;8.23;;;17.60;87.00;;;;;;5064718;28;20544;-41
2022/04/15 06:50:55;;;;;;;8.70;7.87;;;17.80;86.70;;;;;;5047997;28;20468;-41
2022/04/15 06:53:23;;;;;;;9.50;8.37;;;18.00;86.20;;;;;;5048442;28;20468;-42
2022/04/15 06:55:49;;;;;;;8.40;7.60;;;18.20;85.50;;;;;;5066205;28;20428;-40
2022/04/15 06:58:16;;;;;;;11.90;8.10;;;18.50;84.70;;;;;;5064751;28;20439;-40
2022/04/15 07:00:41;;;;;;;9.27;7.90;;;18.70;83.50;;;;;;5065933;28;20786;-42
2022/04/15 07:03:12;;;;;;;8.90;7.80;;;18.90;82.50;;;;;;5062539;28;20552;-47
2022/04/15 07:05:37;;;;;;;9.60;8.70;;;19.00;81.80;;;;;;5063148;28;20272;-47
2022/04/15 07:08:03;;;;;;;9.37;8.47;;;19.10;80.90;;;;;;5066072;28;20443;-48
2022/04/15 07:10:29;;;;;;;9.40;7.93;;;19.20;80.10;;;;;;5066509;28;20185;-47
2022/04/15 07:12:56;;;;;;;10.43;9.33;;;19.30;79.80;;;;;;5063607;28;20427;-46
2022/04/15 07:15:23;;;;;;;9.60;8.60;;;19.50;79.20;;;;;;5066494;28;20219;-48
2022/04/15 07:17:49;;;;;;;10.27;9.27;;;19.70;78.50;;;;;;5068201;28;20787;-49
2022/04/15 07:20:15;;;;;;;8.73;7.83;;;20.00;77.70;;;;;;5068813;28;20432;-49
2022/04/15 07:22:41;;;;;;;10.00;9.10;;;20.30;76.70;;;;;;5069138;28;20445;-50
2022/04/15 07:25:07;;;;;;;9.90;8.90;;;20.50;75.70;;;;;;5064090;28;20222;-51
2022/04/15 07:27:33;;;;;;;9.13;8.23;;;20.80;74.60;;;;;;5060124;28;20476;-49
2022/04/15 07:29:58;;;;;;;10.73;9.70;;;21.00;73.40;;;;;;5067769;28;20526;-50
2022/04/15 07:32:25;;;;;;;10.07;9.03;;;21.30;72.30;;;;;;5066721;28;20852;-47
2022/04/15 07:34:51;;;;;;;10.73;9.73;;;21.60;70.60;;;;;;5065770;28;20188;-49
2022/04/15 07:37:17;;;;;;;11.00;10.00;;;21.80;68.50;;;;;;5067773;28;20415;-49
2022/04/15 07:39:43;;;;;;;11.80;9.30;;;22.10;67.60;;;;;;5065139;28;20590;-47
2022/04/15 07:42:11;;;;;;;9.90;9.00;;;22.30;66.20;;;;;;5066734;28;20888;-48
2022/04/15 07:44:40;;;;;;;10.27;9.37;;;22.60;65.10;;;;;;5054941;28;20906;-48
2022/04/15 07:47:07;;;;;;;9.63;8.47;;;22.90;63.40;;;;;;5065406;28;20533;-51
2022/04/15 07:49:34;;;;;;;11.43;10.33;;;23.10;61.50;;;;;;5069247;28;20854;-49
2022/04/15 07:52:00;;;;;;;12.60;9.20;;;23.40;59.90;;;;;;5055798;28;20414;-46
2022/04/15 07:54:25;;;;;;;10.27;8.97;;;23.70;59.70;;;;;;5063622;28;20958;-46
2022/04/15 07:56:51;;;;;;;14.60;12.23;;;24.00;59.00;;;;;;5067680;28;20469;-46
2022/04/15 07:59:18;;;;;;;13.57;12.20;;;24.20;59.10;;;;;;5066868;28;20191;-47
2022/04/15 08:01:43;;;;;;;11.30;10.30;;;24.50;57.50;;;;;;5068505;28;20173;-46
2022/04/15 08:04:09;;;;;;;12.37;11.07;;;24.70;56.40;;;;;;5065484;28;20723;-44
2022/04/15 08:06:35;;;;;;;13.93;12.53;;;24.70;56.20;;;;;;5066740;28;20522;-47
2022/04/15 08:09:00;;;;;;;16.43;12.20;;;24.70;57.20;;;;;;5064860;28;20223;-46
2022/04/15 08:11:26;;;;;;;12.07;10.77;;;24.70;56.80;;;;;;5066804;28;20208;-46
2022/04/15 08:13:53;;;;;;;13.67;12.23;;;24.80;56.80;;;;;;5066282;28;20252;-50
2022/04/15 08:16:20;;;;;;;12.57;9.07;;;25.10;55.90;;;;;;5066758;28;20434;-46
2022/04/15 08:18:49;;;;;;;12.13;10.20;;;25.40;55.30;;;;;;5065070;28;20440;-48
2022/04/15 08:21:15;;;;;;;12.40;11.10;;;25.70;53.90;;;;;;5068163;28;20857;-48
2022/04/15 08:23:41;;;;;;;12.03;10.83;;;26.00;52.50;;;;;;5067167;28;20436;-49
2022/04/15 08:26:06;;;;;;;11.30;10.20;;;26.20;51.80;;;;;;5065334;28;20461;-49
2022/04/15 08:28:32;;;;;;;10.40;9.30;;;26.20;50.70;;;;;;5070226;28;20225;-51
2022/04/15 08:30:58;;;;;;;10.63;9.40;;;26.20;50.50;;;;;;5067764;28;20197;-49
2022/04/15 08:33:24;;;;;;;11.33;10.27;;;26.10;49.80;;;;;;5069460;28;20419;-55
2022/04/15 08:35:50;;;;;;;12.47;10.90;;;26.00;49.00;;;;;;5068225;28;20203;-50
2022/04/15 08:38:15;;;;;;;11.47;10.37;;;26.00;49.00;;;;;;5068249;28;20188;-50
2022/04/15 08:40:50;;;;;;;7.47;6.73;;;26.00;48.80;;;;;;5066457;28;20201;-46
2022/04/15 08:43:15;;;;;;;10.90;9.80;;;26.20;48.90;;;;;;5069441;28;20183;-49
2022/04/15 08:45:42;;;;;;;8.03;7.23;;;26.30;48.50;;;;;;5064178;28;20479;-48
2022/04/15 08:48:08;;;;;;;11.27;10.17;;;26.50;48.00;;;;;;5064089;28;20196;-50
2022/04/15 08:50:34;;;;;;;8.20;7.40;;;26.50;47.00;;;;;;5057466;28;20433;-49
2022/04/15 08:53:01;;;;;;;10.73;9.93;;;26.60;46.90;;;;;;5072341;28;20434;-47
2022/04/15 08:55:28;;;;;;;9.87;9.17;;;26.90;45.60;;;;;;5070594;28;20272;-45
2022/04/15 08:57:55;;;;;;;9.83;9.03;;;27.00;44.40;;;;;;5071119;28;20502;-48
2022/04/15 09:00:21;;;;;;;8.80;8.10;;;27.20;43.50;;;;;;5071334;28;20434;-45
2022/04/15 09:02:49;;;;;;;10.10;9.20;;;27.30;43.20;;;;;;5072315;28;20450;-47
2022/04/15 09:05:19;;;;;;;8.90;8.00;;;27.20;42.70;;;;;;5069699;28;20545;-47
2022/04/15 09:07:45;;;;;;;7.03;6.53;;;27.10;42.70;;;;;;5051422;28;20504;-45
2022/04/15 09:10:12;;;;;;;8.30;7.60;;;26.80;42.80;;;;;;5071229;28;20499;-49
2022/04/15 09:12:39;;;;;;;8.40;7.60;;;26.70;42.90;;;;;;5068777;28;20836;-43
2022/04/15 09:15:08;;;;;;;11.00;9.90;;;26.60;43.00;;;;;;5069774;28;20415;-47
2022/04/15 09:17:38;;;;;;;10.83;10.03;;;26.80;43.20;;;;;;5068937;28;20590;-48
2022/04/15 09:20:05;;;;;;;7.30;6.70;;;27.20;43.00;;;;;;5070260;28;20839;-49
2022/04/15 09:22:31;;;;;;;9.30;8.60;;;27.60;42.70;;;;;;5070002;28;20431;-45
2022/04/15 09:24:58;;;;;;;9.63;8.83;;;28.10;42.60;;;;;;5072381;28;20446;-47
2022/04/15 09:27:23;;;;;;;8.83;7.93;;;28.50;41.50;;;;;;5071742;28;20251;-44
2022/04/15 09:29:51;;;;;;;9.27;8.47;;;28.90;40.60;;;;;;5071979;28;20433;-47
2022/04/15 09:32:18;;;;;;;7.33;6.63;;;29.00;40.40;;;;;;5073278;28;20182;-43
2022/04/15 09:34:57;;;;;;;10.13;9.30;;;28.90;40.30;;;;;;5071565;28;20520;-44
2022/04/15 09:37:30;;;;;;;10.77;9.93;;;28.50;40.20;;;;;;5071469;28;20435;-46
2022/04/15 09:40:18;;;;;;;8.47;7.67;;;28.10;40.20;;;;;;5070201;28;20760;-46
2022/04/15 09:42:49;;;;;;;7.67;7.07;;;27.80;40.20;;;;;;5071911;28;20607;-49
2022/04/15 09:45:30;;;;;;;10.50;9.60;;;27.60;40.40;;;;;;5055696;28;20428;-45
2022/04/15 09:48:00;;;;;;;11.43;10.33;;;27.30;41.80;;;;;;5055363;28;20431;-53
2022/04/15 09:50:34;;;;;;;11.80;10.80;;;27.10;43.20;;;;;;5063168;28;20869;-49
2022/04/15 09:53:18;;;;;;;9.30;8.50;;;27.00;43.30;;;;;;5062320;28;20516;-48
2022/04/15 09:55:51;;;;;;;9.80;8.80;;;26.80;43.10;;;;;;5065607;28;20495;-49
2022/04/15 09:58:21;;;;;;;9.37;8.50;;;26.80;42.60;;;;;;5064181;28;20428;-50
2022/04/15 10:00:51;;;;;;;10.17;8.90;;;26.70;42.20;;;;;;5067584;28;20398;-49
2022/04/15 10:03:19;;;;;;;9.70;8.90;;;27.00;42.20;;;;;;5066338;28;20443;-49
2022/04/15 10:05:45;;;;;;;9.27;8.47;;;27.60;41.60;;;;;;5061241;28;20722;-48
2022/04/15 10:08:11;;;;;;;11.20;10.13;;;28.10;41.10;;;;;;5062403;28;21381;-49
2022/04/15 10:10:37;;;;;;;12.00;10.80;;;28.10;39.00;;;;;;5064136;28;20422;-49
2022/04/15 10:13:04;;;;;;;8.70;7.80;;;28.30;38.90;;;;;;5064588;28;20203;-48
2022/04/15 10:15:31;;;;;;;7.83;7.17;;;28.70;39.50;;;;;;5063777;28;20759;-49
2022/04/15 10:18:01;;;;;;;9.13;8.03;;;29.20;39.60;;;;;;5066653;28;20447;-49
2022/04/15 10:20:29;;;;;;;11.20;10.30;;;29.40;39.50;;;;;;5061865;28;20436;-48
2022/04/15 10:23:06;;;;;;;7.40;6.80;;;29.30;39.00;;;;;;5055323;28;20754;-48
2022/04/15 10:25:34;;;;;;;7.37;6.50;;;29.10;38.70;;;;;;5045089;28;20446;-48
2022/04/15 10:28:07;;;;;;;6.00;5.50;;;29.60;37.90;;;;;;5050184;28;20459;-51
2022/04/15 10:30:33;;;;;;;7.70;6.90;;;30.00;37.80;;;;;;5060532;28;20412;-46
2022/04/15 10:32:58;;;;;;;7.67;6.70;;;30.50;37.80;;;;;;5062807;28;20419;-48
2022/04/15 10:35:27;;;;;;;5.83;4.87;;;30.70;37.10;;;;;;5062955;28;20184;-51
2022/04/15 10:38:01;;;;;;;7.00;6.40;;;31.00;36.50;;;;;;5064355;28;20178;-49
2022/04/15 10:40:31;;;;;;;6.30;5.67;;;31.20;35.40;;;;;;5063474;28;20911;-48
2022/04/15 10:43:24;;;;;;;7.27;6.27;;;31.50;35.10;;;;;;5062130;28;20509;-49
2022/04/15 10:45:51;;;;;;;6.60;5.83;;;31.70;34.60;;;;;;5061995;28;20461;-49
2022/04/15 10:48:31;;;;;;;6.60;6.10;;;32.00;35.10;;;;;;5058585;28;20410;-47
2022/04/15 10:50:57;;;;;;;7.47;6.60;;;32.00;34.80;;;;;;5059347;28;20422;-50
2022/04/15 10:53:26;;;;;;;8.93;8.03;;;32.00;35.30;;;;;;5065578;28;20425;-43
2022/04/15 10:55:52;;;;;;;11.07;8.87;;;31.50;35.20;;;;;;5067988;28;20193;-47
2022/04/15 10:58:19;;;;;;;9.67;8.03;;;30.70;34.60;;;;;;5069120;28;20392;-52
2022/04/15 11:03:53;;;;;;;10.77;8.30;;;29.30;35.20;;;;;;4995671;28;20806;-49
2022/04/15 11:06:26;;;;;;;8.67;7.87;;;28.90;36.80;;;;;;5059093;28;20879;-48
2022/04/15 11:08:53;;;;;;;13.93;11.03;;;29.30;37.70;;;;;;5065179;28;20412;-48
2022/04/15 11:11:35;;;;;;;7.53;6.83;;;29.80;37.90;;;;;;5046282;28;20430;-47
2022/04/15 11:14:05;;;;;;;8.03;6.13;;;30.10;36.50;;;;;;5066883;28;20788;-46
2022/04/15 11:16:48;;;;;;;8.20;7.40;;;30.40;35.70;;;;;;5066848;28;20855;-45
2022/04/15 11:19:32;;;;;;;10.13;8.50;;;30.40;35.50;;;;;;5065794;28;20476;-49
2022/04/15 11:22:00;;;;;;;8.90;8.10;;;30.50;36.30;;;;;;5062825;28;20921;-46
2022/04/15 11:24:28;;;;;;;8.20;7.40;;;30.50;35.30;;;;;;5067634;28;20883;-52
2022/04/15 11:27:03;;;;;;;8.70;7.80;;;30.50;35.50;;;;;;5058999;28;20488;-49
2022/04/15 11:29:33;;;;;;;6.70;6.00;;;30.30;35.60;;;;;;5058094;28;20435;-49
2022/04/15 11:32:05;;;;;;;7.07;5.90;;;30.40;35.20;;;;;;5071684;28;20413;-47
2022/04/15 11:34:31;;;;;;;7.20;6.60;;;30.70;34.40;;;;;;5069411;28;20401;-50
2022/04/15 11:37:04;;;;;;;8.80;8.00;;;30.90;34.80;;;;;;5067448;28;20612;-50
2022/04/15 11:39:35;;;;;;;6.47;5.87;;;31.00;33.60;;;;;;5068988;28;20254;-50
2022/04/15 11:42:01;;;;;;;9.00;8.10;;;31.40;34.20;;;;;;5068104;28;20637;-54
2022/04/15 11:44:30;;;;;;;7.63;6.93;;;31.50;32.50;;;;;;5058795;28;20482;-55
2022/04/15 11:47:16;;;;;;;8.87;6.90;;;31.70;33.60;;;;;;5056030;28;20758;-48
2022/04/15 11:49:42;;;;;;;5.87;5.33;;;31.80;34.30;;;;;;5051899;28;20875;-45
2022/04/15 11:52:08;;;;;;;7.40;6.07;;;32.10;34.40;;;;;;5067310;28;20390;-46
2022/04/15 11:54:36;;;;;;;7.17;6.47;;;32.40;33.80;;;;;;5068592;28;20500;-47
2022/04/15 11:57:03;;;;;;;6.73;6.13;;;32.40;34.30;;;;;;5068161;28;20393;-49
2022/04/15 11:59:39;;;;;;;6.03;5.30;;;32.60;32.90;;;;;;5067073;28;20731;-50
2022/04/15 12:02:05;;;;;;;7.07;5.30;;;33.00;32.30;;;;;;5055484;28;20407;-52
2022/04/15 12:04:31;;;;;;;5.90;5.20;;;33.20;32.20;;;;;;5064634;28;20695;-45
2022/04/15 12:06:57;;;;;;;5.03;4.53;;;33.20;31.50;;;;;;5067389;28;20728;-48
2022/04/15 12:09:24;;;;;;;5.23;4.73;;;33.40;31.50;;;;;;5054130;28;20237;-49
2022/04/15 12:11:50;;;;;;;5.23;4.73;;;33.70;31.60;;;;;;5065631;28;20417;-48
2022/04/15 12:14:17;;;;;;;7.23;5.07;;;34.10;31.10;;;;;;5066988;28;20457;-51
2022/04/15 12:16:47;;;;;;;6.07;5.47;;;34.20;31.70;;;;;;5068875;28;20190;-48
2022/04/15 12:19:13;;;;;;;6.50;5.97;;;34.40;31.40;;;;;;5067134;28;20414;-46
2022/04/15 12:21:39;;;;;;;7.23;6.40;;;34.80;30.50;;;;;;5069242;28;20694;-48
2022/04/15 12:24:22;;;;;;;5.40;5.00;;;34.50;29.80;;;;;;5063959;28;20733;-47
2022/04/15 12:26:49;;;;;;;5.90;5.27;;;34.20;30.20;;;;;;5066127;28;20486;-50
2022/04/15 12:32:32;;;;;;;5.67;5.17;;;33.80;29.50;;;;;;5066373;28;20536;-46
2022/04/15 12:35:01;;;;;;;5.47;5.07;;;34.00;30.00;;;;;;5063207;28;20420;-47
2022/04/15 12:37:53;;;;;;;5.57;5.07;;;34.30;30.00;;;;;;5064347;28;20845;-50
2022/04/15 12:40:21;;;;;;;8.23;7.47;;;34.20;29.80;;;;;;5062852;28;20733;-49
2022/04/15 12:42:53;;;;;;;6.20;5.60;;;34.20;28.70;;;;;;5064646;28;20416;-47
2022/04/15 12:45:21;;;;;;;6.23;5.67;;;34.00;29.50;;;;;;5041336;28;20854;-48
2022/04/15 12:48:05;;;;;;;5.90;5.50;;;34.10;29.60;;;;;;5053235;28;20420;-50
2022/04/15 12:50:36;;;;;;;6.07;5.57;;;34.30;30.00;;;;;;5051942;28;20439;-48